Time;durP1;ratioP1;P1;durP2;ratioP2;P2;SDS_P1;SDS_P2;PMS_P1;PMS_P2;Temp;Humidity;BMP_temperature;BMP_pressure;BME280_temperature;BME280_humidity;BME280_pressure;Samples;Min_cycle;Max_cycle;Signal;HPM_P1;HPM_P2
2023/09/23 00:02:44;;;;;;;4.47;2.83;;;17.20;99.90;;;;;;6239273;23;20008;-69
2023/09/23 00:05:35;;;;;;;4.30;3.08;;;17.10;99.90;;;;;;6239905;23;20073;-73
2023/09/23 00:08:20;;;;;;;3.58;2.50;;;17.10;99.90;;;;;;6239099;23;20016;-72
2023/09/23 00:11:08;;;;;;;2.80;2.30;;;17.10;99.90;;;;;;6221028;23;20012;-72
2023/09/23 00:13:54;;;;;;;3.95;2.72;;;17.10;99.90;;;;;;6239646;23;20040;-73
2023/09/23 00:16:39;;;;;;;8.05;3.13;;;17.10;99.90;;;;;;6238200;23;20096;-73
2023/09/23 00:19:26;;;;;;;5.65;3.45;;;17.10;99.90;;;;;;6240535;23;20097;-73
2023/09/23 00:22:12;;;;;;;4.00;2.95;;;17.10;99.90;;;;;;6238091;23;20521;-71
2023/09/23 00:24:59;;;;;;;3.92;2.42;;;17.10;99.90;;;;;;6240086;23;20073;-70
2023/09/23 00:27:48;;;;;;;5.03;2.40;;;17.10;99.90;;;;;;6240051;23;20004;-71
2023/09/23 00:30:36;;;;;;;4.78;2.50;;;17.10;99.90;;;;;;6238678;23;20012;-70
2023/09/23 00:33:21;;;;;;;3.85;2.50;;;17.10;99.90;;;;;;6240156;23;20071;-71
2023/09/23 00:36:09;;;;;;;3.08;2.45;;;17.10;99.90;;;;;;6239287;23;20008;-71
2023/09/23 00:38:55;;;;;;;3.50;2.30;;;17.10;99.90;;;;;;6242931;23;20016;-70
2023/09/23 00:41:41;;;;;;;2.95;2.05;;;17.10;99.90;;;;;;6239117;23;20012;-70
2023/09/23 00:44:28;;;;;;;3.45;2.20;;;17.10;99.90;;;;;;6242043;23;20020;-71
2023/09/23 00:47:15;;;;;;;4.03;2.40;;;17.10;99.90;;;;;;6241964;23;20083;-70
2023/09/23 00:50:22;;;;;;;5.20;2.90;;;17.10;99.90;;;;;;6243605;23;20392;-60
2023/09/23 00:53:08;;;;;;;4.75;2.72;;;17.10;99.90;;;;;;6242484;23;20139;-59
2023/09/23 00:55:55;;;;;;;5.25;3.55;;;17.00;99.90;;;;;;6241789;22;20016;-60
2023/09/23 00:58:42;;;;;;;3.47;2.25;;;17.10;99.90;;;;;;6241090;23;20015;-62
2023/09/23 01:01:28;;;;;;;4.15;2.50;;;17.10;99.90;;;;;;6242035;23;20008;-60
2023/09/23 01:04:15;;;;;;;3.63;2.28;;;17.00;99.90;;;;;;6241302;23;20047;-60
2023/09/23 01:07:02;;;;;;;4.88;2.55;;;17.10;99.90;;;;;;6241437;23;20009;-61
2023/09/23 01:09:48;;;;;;;4.22;2.58;;;17.10;99.90;;;;;;6243171;23;20438;-60
2023/09/23 01:12:34;;;;;;;3.58;2.25;;;17.00;99.90;;;;;;6243711;23;20008;-60
2023/09/23 01:15:22;;;;;;;4.60;2.50;;;17.00;99.90;;;;;;6240777;23;20036;-59
2023/09/23 01:18:08;;;;;;;3.65;2.00;;;17.00;99.90;;;;;;6242791;23;20496;-59
2023/09/23 01:21:00;;;;;;;5.80;2.03;;;17.00;99.90;;;;;;6240229;23;20012;-59
2023/09/23 01:23:46;;;;;;;4.10;2.75;;;17.00;99.90;;;;;;6242223;23;20074;-59
2023/09/23 01:26:34;;;;;;;3.45;2.35;;;17.00;99.90;;;;;;6241643;23;20345;-59
2023/09/23 01:29:22;;;;;;;3.22;2.03;;;17.00;99.90;;;;;;6239530;23;20150;-60
2023/09/23 01:32:26;;;;;;;5.15;2.72;;;17.00;99.90;;;;;;6242193;23;20011;-60
2023/09/23 01:35:16;;;;;;;4.30;2.53;;;17.00;99.90;;;;;;6242143;23;20008;-60
2023/09/23 01:38:03;;;;;;;4.03;1.98;;;17.00;99.90;;;;;;6242839;22;20198;-61
2023/09/23 01:40:50;;;;;;;3.15;2.10;;;17.00;99.90;;;;;;6242253;23;20015;-59
2023/09/23 01:43:36;;;;;;;5.07;2.28;;;16.90;99.90;;;;;;6240131;23;20484;-60
2023/09/23 01:46:22;;;;;;;4.00;2.22;;;16.90;99.90;;;;;;6243079;23;20012;-60
2023/09/23 01:49:08;;;;;;;2.33;1.80;;;16.90;99.90;;;;;;6243532;23;20054;-59
2023/09/23 01:51:54;;;;;;;4.55;2.55;;;16.90;99.90;;;;;;6241429;23;20015;-60
2023/09/23 01:54:40;;;;;;;3.00;1.88;;;16.90;99.90;;;;;;6243035;23;20008;-60
2023/09/23 01:57:26;;;;;;;3.97;1.90;;;16.90;99.90;;;;;;6241366;23;20012;-60
2023/09/23 02:00:21;;;;;;;3.72;2.00;;;16.90;99.90;;;;;;6242154;23;20046;-60
2023/09/23 02:03:07;;;;;;;4.43;2.50;;;16.90;99.90;;;;;;6241129;23;20500;-59
2023/09/23 02:05:54;;;;;;;3.60;2.45;;;16.90;99.90;;;;;;6242101;23;20099;-61
2023/09/23 02:08:40;;;;;;;3.67;2.17;;;16.80;99.90;;;;;;6240145;23;20034;-60
2023/09/23 02:11:26;;;;;;;2.45;1.83;;;16.80;99.90;;;;;;6243514;23;20381;-60
2023/09/23 02:14:12;;;;;;;3.13;2.00;;;16.80;99.90;;;;;;6243370;23;20004;-60
2023/09/23 02:16:58;;;;;;;4.90;2.00;;;16.80;99.90;;;;;;6240807;23;20016;-60
2023/09/23 02:19:43;;;;;;;3.67;2.40;;;16.80;99.90;;;;;;6242042;23;20081;-60
2023/09/23 02:22:30;;;;;;;2.85;1.70;;;16.70;99.90;;;;;;6240807;23;20012;-60
2023/09/23 02:25:17;;;;;;;5.15;2.50;;;16.70;99.90;;;;;;6240713;23;20335;-59
2023/09/23 02:28:03;;;;;;;3.53;2.20;;;16.70;99.90;;;;;;6239828;23;20008;-60
2023/09/23 02:30:51;;;;;;;3.17;2.13;;;16.70;99.90;;;;;;6240546;23;20018;-59
2023/09/23 02:33:37;;;;;;;3.80;2.13;;;16.60;99.90;;;;;;6241634;23;20509;-60
2023/09/23 02:36:23;;;;;;;2.70;1.90;;;16.60;99.90;;;;;;6243454;23;20219;-61
2023/09/23 02:39:15;;;;;;;3.05;2.15;;;16.60;99.90;;;;;;6241181;23;20020;-61
2023/09/23 02:42:04;;;;;;;3.53;2.20;;;16.60;99.90;;;;;;6217010;23;20453;-60
2023/09/23 02:44:50;;;;;;;3.13;2.05;;;16.60;99.90;;;;;;6240429;23;20358;-59
2023/09/23 02:47:37;;;;;;;3.08;1.75;;;16.60;99.90;;;;;;6242516;23;20008;-60
2023/09/23 02:50:23;;;;;;;2.70;1.70;;;16.60;99.90;;;;;;6240963;23;20347;-59
2023/09/23 02:53:10;;;;;;;4.55;2.45;;;16.50;99.90;;;;;;6242533;23;20035;-59
2023/09/23 02:56:16;;;;;;;3.33;2.03;;;16.50;99.90;;;;;;6238622;22;20012;-60
2023/09/23 02:59:11;;;;;;;3.13;1.77;;;16.50;99.90;;;;;;6239390;23;20381;-59
2023/09/23 03:01:58;;;;;;;3.33;1.95;;;16.40;99.90;;;;;;6239367;23;20445;-59
2023/09/23 03:04:44;;;;;;;4.63;2.08;;;16.40;99.90;;;;;;6240737;23;20111;-59
2023/09/23 03:07:33;;;;;;;2.67;1.80;;;16.40;99.90;;;;;;6241886;23;20083;-59
2023/09/23 03:10:19;;;;;;;2.67;1.90;;;16.30;99.90;;;;;;6240040;23;20061;-60
2023/09/23 03:13:07;;;;;;;3.40;2.10;;;16.40;99.90;;;;;;6240734;23;20434;-60
2023/09/23 03:15:58;;;;;;;4.13;2.08;;;16.30;99.90;;;;;;6239193;23;20107;-61
2023/09/23 03:19:10;;;;;;;2.95;2.13;;;16.30;99.90;;;;;;6238550;23;20004;-60
2023/09/23 03:21:56;;;;;;;2.95;1.70;;;16.30;99.90;;;;;;6240204;23;20008;-60
2023/09/23 03:24:46;;;;;;;2.30;1.50;;;16.30;99.90;;;;;;6242054;23;20331;-60
2023/09/23 03:27:32;;;;;;;2.38;1.65;;;16.30;99.90;;;;;;6240491;23;20419;-60
2023/09/23 03:30:19;;;;;;;2.60;1.75;;;16.30;99.90;;;;;;6240699;23;20051;-61
2023/09/23 03:33:06;;;;;;;10.10;2.15;;;16.30;99.90;;;;;;6242521;23;20008;-61
2023/09/23 03:35:53;;;;;;;3.08;1.58;;;16.30;99.90;;;;;;6239232;23;20039;-60
2023/09/23 03:38:39;;;;;;;2.30;1.58;;;16.40;99.90;;;;;;6239770;23;20468;-60
2023/09/23 03:41:25;;;;;;;2.58;1.60;;;16.30;99.90;;;;;;6240004;23;20015;-60
2023/09/23 03:44:13;;;;;;;2.28;1.60;;;16.30;99.90;;;;;;6244143;23;20020;-59
2023/09/23 03:47:00;;;;;;;3.90;1.98;;;16.30;99.90;;;;;;6240831;23;20005;-60
2023/09/23 03:49:46;;;;;;;1.88;1.45;;;16.40;99.90;;;;;;6240293;23;20031;-59
2023/09/23 03:52:33;;;;;;;3.08;1.33;;;16.30;99.90;;;;;;6242596;23;20014;-59
2023/09/23 03:55:20;;;;;;;3.15;1.88;;;16.30;99.90;;;;;;6240481;22;20008;-60
2023/09/23 03:58:06;;;;;;;3.38;1.73;;;16.30;99.90;;;;;;6239164;23;20409;-59
2023/09/23 04:00:54;;;;;;;1.85;1.20;;;16.40;99.90;;;;;;6240509;23;20012;-59
2023/09/23 04:03:40;;;;;;;1.92;1.40;;;16.40;99.90;;;;;;6240314;23;20019;-59
2023/09/23 04:06:27;;;;;;;2.13;1.50;;;16.30;99.90;;;;;;6241694;23;20066;-59
2023/09/23 04:09:13;;;;;;;2.05;1.45;;;16.30;99.90;;;;;;6240155;23;20093;-59
2023/09/23 04:12:03;;;;;;;1.92;1.20;;;16.30;99.90;;;;;;6216580;23;20472;-60
2023/09/23 04:14:52;;;;;;;3.75;1.52;;;16.30;99.90;;;;;;6217830;23;20338;-60
2023/09/23 04:17:38;;;;;;;3.63;1.92;;;16.30;99.90;;;;;;6241940;23;20008;-61
2023/09/23 04:20:25;;;;;;;1.63;1.10;;;16.30;99.90;;;;;;6239795;23;20011;-60
2023/09/23 04:23:11;;;;;;;2.65;1.40;;;16.30;99.90;;;;;;6239199;23;20015;-60
2023/09/23 04:25:57;;;;;;;2.80;1.73;;;16.30;99.90;;;;;;6241740;23;20091;-60
2023/09/23 04:28:45;;;;;;;1.48;1.08;;;16.30;99.90;;;;;;6239838;23;20133;-59
2023/09/23 04:31:31;;;;;;;3.05;1.20;;;16.30;99.90;;;;;;6217778;23;20039;-59
2023/09/23 04:34:17;;;;;;;2.03;1.30;;;16.30;99.90;;;;;;6239492;23;20000;-59
2023/09/23 04:37:04;;;;;;;2.60;1.45;;;16.30;99.90;;;;;;6239961;23;20394;-59
2023/09/23 04:39:50;;;;;;;2.10;1.17;;;16.30;99.90;;;;;;6238283;22;20481;-59
2023/09/23 04:42:37;;;;;;;2.35;1.73;;;16.30;99.90;;;;;;6239138;23;20012;-59
2023/09/23 04:45:23;;;;;;;2.30;1.25;;;16.30;99.90;;;;;;6241613;23;20027;-59
2023/09/23 04:48:10;;;;;;;2.58;1.40;;;16.20;99.90;;;;;;6238550;23;20017;-58
2023/09/23 04:50:55;;;;;;;2.25;1.27;;;16.20;99.90;;;;;;6239833;23;20015;-59
2023/09/23 04:53:41;;;;;;;1.40;1.10;;;16.20;99.90;;;;;;6241634;23;20055;-60
2023/09/23 04:56:27;;;;;;;2.75;1.30;;;16.20;99.90;;;;;;6238828;22;20125;-59
2023/09/23 04:59:13;;;;;;;2.78;1.55;;;16.20;99.90;;;;;;6241874;22;20481;-60
2023/09/23 05:02:00;;;;;;;2.10;1.40;;;16.20;99.90;;;;;;6241735;23;20449;-60
2023/09/23 05:04:46;;;;;;;3.08;1.20;;;16.20;99.90;;;;;;6240291;23;20020;-60
2023/09/23 05:07:32;;;;;;;1.60;1.10;;;16.10;99.90;;;;;;6241108;23;20087;-61
2023/09/23 05:10:18;;;;;;;2.15;1.17;;;16.10;99.90;;;;;;6241504;23;20085;-60
2023/09/23 05:13:04;;;;;;;1.70;1.20;;;16.10;99.90;;;;;;6240134;23;20300;-59
2023/09/23 05:15:50;;;;;;;2.25;1.20;;;16.10;99.90;;;;;;6242319;23;20071;-59
2023/09/23 05:18:36;;;;;;;1.73;1.10;;;16.10;99.90;;;;;;6241170;23;20008;-59
2023/09/23 05:21:22;;;;;;;2.65;1.40;;;16.10;99.90;;;;;;6240059;23;20055;-60
2023/09/23 05:24:10;;;;;;;2.17;1.23;;;16.00;99.90;;;;;;6239540;23;20024;-59
2023/09/23 05:26:56;;;;;;;1.88;1.10;;;16.00;99.90;;;;;;6239420;23;20437;-60
2023/09/23 05:29:45;;;;;;;2.75;1.83;;;16.00;99.90;;;;;;6241053;23;20138;-61
2023/09/23 05:32:31;;;;;;;1.58;1.10;;;16.00;99.90;;;;;;6240319;23;20008;-59
2023/09/23 05:35:18;;;;;;;1.52;0.90;;;16.00;99.90;;;;;;6243129;23;20008;-59
2023/09/23 05:38:04;;;;;;;2.65;1.40;;;16.00;99.90;;;;;;6241268;22;20023;-60
2023/09/23 05:40:51;;;;;;;1.88;1.33;;;15.90;99.90;;;;;;6242304;23;20012;-59
2023/09/23 05:43:37;;;;;;;1.80;1.27;;;15.90;99.90;;;;;;6241857;23;20051;-60
2023/09/23 05:46:23;;;;;;;1.85;1.30;;;15.90;99.90;;;;;;6243575;23;20012;-61
2023/09/23 05:49:12;;;;;;;2.30;1.20;;;15.90;99.90;;;;;;6240577;23;20040;-60
2023/09/23 05:51:58;;;;;;;2.67;1.52;;;15.90;99.90;;;;;;6241601;23;20011;-60
2023/09/23 05:54:43;;;;;;;3.38;1.58;;;15.90;99.90;;;;;;6244054;23;20005;-60
2023/09/23 05:57:30;;;;;;;2.25;1.25;;;15.90;99.90;;;;;;6242956;23;20400;-61
2023/09/23 06:00:17;;;;;;;2.30;1.23;;;15.90;99.90;;;;;;6239724;23;20016;-60
2023/09/23 06:03:03;;;;;;;3.22;1.38;;;15.90;99.90;;;;;;6242479;23;20020;-60
2023/09/23 06:05:49;;;;;;;2.63;1.58;;;15.90;99.90;;;;;;6243724;23;20381;-60
2023/09/23 06:08:35;;;;;;;1.85;1.20;;;15.90;99.90;;;;;;6243112;23;20012;-60
2023/09/23 06:11:21;;;;;;;2.17;1.10;;;15.90;99.90;;;;;;6241501;23;20051;-60
2023/09/23 06:14:09;;;;;;;1.67;0.95;;;15.90;99.90;;;;;;6243566;23;20493;-59
2023/09/23 06:16:55;;;;;;;2.78;1.20;;;15.90;99.90;;;;;;6241462;23;20035;-60
2023/09/23 06:19:41;;;;;;;2.17;1.23;;;15.90;99.90;;;;;;6243035;23;20413;-60
2023/09/23 06:22:27;;;;;;;1.30;1.20;;;16.00;99.90;;;;;;6243100;23;20095;-60
2023/09/23 06:25:13;;;;;;;1.83;1.40;;;15.90;99.90;;;;;;6241514;23;20016;-60
2023/09/23 06:27:59;;;;;;;1.38;1.00;;;16.00;99.90;;;;;;6241618;23;20012;-61
2023/09/23 06:30:45;;;;;;;1.20;1.00;;;16.00;99.90;;;;;;6243091;23;20047;-60
2023/09/23 06:33:31;;;;;;;1.25;0.98;;;16.00;99.90;;;;;;6242780;23;20008;-60
2023/09/23 06:36:17;;;;;;;1.75;1.10;;;16.00;99.90;;;;;;6243313;23;20040;-60
2023/09/23 06:39:03;;;;;;;2.10;1.40;;;16.00;99.90;;;;;;6242829;23;20059;-60
2023/09/23 06:41:48;;;;;;;1.02;0.90;;;16.00;99.90;;;;;;6242590;23;20004;-60
2023/09/23 06:44:34;;;;;;;1.23;0.80;;;16.00;99.90;;;;;;6243279;23;20418;-60
2023/09/23 06:47:20;;;;;;;2.08;1.08;;;16.10;99.90;;;;;;6220615;23;20361;-60
2023/09/23 06:50:07;;;;;;;2.50;1.15;;;16.10;99.90;;;;;;6241249;23;20326;-60
2023/09/23 06:52:53;;;;;;;2.20;0.95;;;16.10;99.90;;;;;;6240389;23;20012;-61
2023/09/23 06:55:38;;;;;;;3.95;1.00;;;16.10;99.90;;;;;;6243366;22;20001;-60
2023/09/23 06:58:24;;;;;;;2.20;0.98;;;16.20;99.90;;;;;;6243089;23;20020;-60
2023/09/23 07:01:10;;;;;;;4.93;1.27;;;16.10;99.90;;;;;;6243225;23;20020;-60
2023/09/23 07:03:56;;;;;;;1.48;1.00;;;16.20;99.90;;;;;;6239668;23;20020;-60
2023/09/23 07:06:42;;;;;;;1.17;1.02;;;16.20;99.90;;;;;;6242986;23;20012;-61
2023/09/23 07:09:28;;;;;;;1.55;1.25;;;16.20;99.90;;;;;;6240031;23;20015;-61
2023/09/23 07:12:14;;;;;;;2.28;1.15;;;16.20;99.90;;;;;;6241296;23;20008;-61
2023/09/23 07:15:00;;;;;;;2.03;1.00;;;16.20;99.90;;;;;;6240740;23;20016;-59
2023/09/23 07:17:46;;;;;;;1.77;1.02;;;16.30;99.90;;;;;;6240053;23;20016;-59
2023/09/23 07:20:33;;;;;;;1.95;0.95;;;16.30;99.90;;;;;;6243003;23;20078;-61
2023/09/23 07:23:19;;;;;;;1.92;1.27;;;16.30;99.90;;;;;;6238853;23;20058;-61
2023/09/23 07:26:05;;;;;;;2.03;1.20;;;16.40;99.90;;;;;;6241902;23;20024;-60
2023/09/23 07:28:51;;;;;;;1.77;1.10;;;16.40;99.90;;;;;;6240299;23;20009;-60
2023/09/23 07:31:37;;;;;;;1.27;0.98;;;16.50;99.90;;;;;;6241939;23;20008;-61
2023/09/23 07:34:23;;;;;;;1.98;0.98;;;16.50;99.90;;;;;;6242419;23;20481;-60
2023/09/23 07:37:13;;;;;;;1.85;0.93;;;16.60;99.90;;;;;;6242867;23;20012;-60
2023/09/23 07:39:58;;;;;;;1.13;0.77;;;16.60;99.90;;;;;;6240142;23;20027;-60
2023/09/23 07:42:44;;;;;;;3.05;0.88;;;16.70;99.90;;;;;;6242382;23;20353;-60
2023/09/23 07:45:36;;;;;;;2.15;1.15;;;16.70;99.80;;;;;;6242264;23;20043;-62
2023/09/23 07:48:22;;;;;;;2.30;0.70;;;16.80;99.60;;;;;;6242371;23;20349;-61
2023/09/23 07:51:12;;;;;;;1.80;1.30;;;16.80;99.40;;;;;;6242292;23;20074;-61
2023/09/23 07:53:58;;;;;;;1.27;0.80;;;16.80;99.10;;;;;;6217730;23;20179;-61
2023/09/23 07:56:44;;;;;;;1.40;0.70;;;16.90;98.80;;;;;;6240158;22;20008;-60
2023/09/23 07:59:30;;;;;;;1.20;0.80;;;16.90;98.70;;;;;;6242656;23;20557;-59
2023/09/23 08:02:16;;;;;;;1.75;0.70;;;16.90;98.50;;;;;;6240526;23;20008;-59
2023/09/23 08:05:03;;;;;;;1.77;1.00;;;17.10;98.40;;;;;;6240074;23;20339;-60
2023/09/23 08:07:50;;;;;;;2.60;0.98;;;17.10;98.20;;;;;;6238913;23;20016;-60
2023/09/23 08:10:36;;;;;;;0.88;0.82;;;17.10;98.00;;;;;;6239250;23;20074;-60
2023/09/23 08:13:22;;;;;;;1.40;1.08;;;17.20;98.00;;;;;;6241946;23;20012;-60
2023/09/23 08:16:08;;;;;;;2.08;0.68;;;17.30;97.70;;;;;;6241225;23;20099;-61
2023/09/23 08:18:54;;;;;;;2.50;1.08;;;17.30;97.80;;;;;;6238093;23;20099;-60
2023/09/23 08:21:40;;;;;;;5.72;0.98;;;17.40;97.60;;;;;;6240037;23;20023;-61
2023/09/23 08:24:26;;;;;;;2.70;1.00;;;17.50;97.40;;;;;;6239777;23;20027;-60
2023/09/23 08:27:12;;;;;;;1.02;0.73;;;17.60;97.30;;;;;;6240266;23;20016;-60
2023/09/23 08:29:58;;;;;;;1.42;1.02;;;17.70;97.30;;;;;;6240619;23;20088;-60
2023/09/23 08:32:45;;;;;;;5.40;1.23;;;17.80;97.40;;;;;;6239352;23;20012;-60
2023/09/23 08:35:31;;;;;;;1.80;0.80;;;17.90;97.40;;;;;;6238951;23;20019;-60
2023/09/23 08:38:17;;;;;;;2.58;1.45;;;17.90;97.10;;;;;;6241935;22;20023;-60
2023/09/23 08:41:05;;;;;;;3.25;1.48;;;18.00;97.00;;;;;;6242071;23;20087;-61
2023/09/23 08:43:53;;;;;;;3.17;1.10;;;18.10;96.80;;;;;;6240254;23;20478;-60
2023/09/23 08:46:40;;;;;;;3.42;1.00;;;18.20;96.50;;;;;;6240820;23;20012;-61
2023/09/23 08:49:28;;;;;;;1.02;0.80;;;18.30;96.30;;;;;;6239057;23;20095;-61
2023/09/23 08:52:17;;;;;;;2.70;1.35;;;18.30;96.00;;;;;;6239844;23;20069;-62
2023/09/23 08:55:04;;;;;;;2.08;0.77;;;18.40;95.80;;;;;;6239290;22;20023;-62
2023/09/23 08:57:50;;;;;;;1.15;0.90;;;18.40;95.70;;;;;;6238645;23;20015;-61
2023/09/23 09:00:36;;;;;;;1.95;1.25;;;18.50;95.50;;;;;;6216666;23;20012;-61
2023/09/23 09:03:22;;;;;;;2.17;0.90;;;18.50;95.20;;;;;;6239106;23;20107;-61
2023/09/23 09:06:21;;;;;;;1.63;0.77;;;18.60;95.00;;;;;;6241929;23;20020;-61
2023/09/23 09:09:07;;;;;;;1.02;0.90;;;18.70;94.70;;;;;;6239424;23;20023;-60
2023/09/23 09:11:54;;;;;;;5.13;1.77;;;18.70;94.50;;;;;;6241630;23;20019;-61
2023/09/23 09:14:40;;;;;;;1.48;0.80;;;18.70;94.40;;;;;;6242506;23;20047;-61
2023/09/23 09:17:26;;;;;;;1.65;0.75;;;18.70;94.40;;;;;;6242365;23;20084;-61
2023/09/23 09:20:12;;;;;;;0.88;0.60;;;18.80;94.30;;;;;;6240985;23;20019;-61
2023/09/23 09:22:58;;;;;;;0.75;0.70;;;18.80;94.20;;;;;;6241534;23;20004;-61
2023/09/23 09:25:49;;;;;;;2.63;1.00;;;18.90;94.00;;;;;;6243726;23;20019;-61
2023/09/23 09:28:35;;;;;;;1.33;1.13;;;18.90;93.80;;;;;;6241174;23;20043;-60
2023/09/23 09:31:22;;;;;;;1.58;1.10;;;19.00;93.60;;;;;;6243742;23;20094;-61
2023/09/23 09:34:11;;;;;;;4.82;1.23;;;19.10;93.50;;;;;;6240928;23;20047;-60
2023/09/23 09:36:57;;;;;;;1.55;1.10;;;19.20;93.60;;;;;;6242131;23;20373;-60
2023/09/23 09:39:51;;;;;;;1.85;1.00;;;19.20;93.50;;;;;;6243339;22;20020;-60
2023/09/23 09:42:39;;;;;;;1.73;1.10;;;19.20;93.40;;;;;;6242504;23;20167;-61
2023/09/23 09:45:27;;;;;;;4.32;1.85;;;19.20;93.20;;;;;;6241653;23;20042;-61
2023/09/23 09:48:14;;;;;;;1.77;1.00;;;19.20;93.10;;;;;;6241368;23;20008;-61
2023/09/23 09:51:00;;;;;;;2.35;1.00;;;19.20;93.10;;;;;;6242197;23;20008;-61
2023/09/23 09:53:46;;;;;;;1.65;0.90;;;19.20;93.00;;;;;;6243266;23;20086;-61
2023/09/23 09:56:33;;;;;;;2.40;1.55;;;19.10;93.20;;;;;;6240598;22;20492;-60
2023/09/23 09:59:27;;;;;;;2.45;1.20;;;19.10;92.90;;;;;;6240528;23;20039;-59
2023/09/23 10:02:14;;;;;;;2.22;1.15;;;19.10;93.00;;;;;;6243108;23;20718;-61
2023/09/23 10:05:05;;;;;;;2.45;1.30;;;19.20;93.10;;;;;;6241099;23;20024;-61
2023/09/23 10:07:55;;;;;;;2.90;1.25;;;19.20;93.10;;;;;;6241852;23;20087;-61
2023/09/23 10:10:51;;;;;;;3.05;1.58;;;19.30;92.80;;;;;;6219102;23;20171;-61
2023/09/23 10:13:37;;;;;;;1.98;1.48;;;19.40;92.40;;;;;;6240564;23;20019;-60
2023/09/23 10:16:27;;;;;;;2.15;1.33;;;19.40;92.20;;;;;;6241541;23;20012;-61
2023/09/23 10:19:15;;;;;;;1.92;1.40;;;19.40;92.20;;;;;;6242378;23;20012;-61
2023/09/23 10:22:20;;;;;;;2.78;1.30;;;19.40;91.80;;;;;;6241195;23;20019;-63
2023/09/23 10:25:11;;;;;;;2.67;1.63;;;19.40;92.00;;;;;;6240469;23;20020;-61
2023/09/23 10:28:00;;;;;;;1.80;1.40;;;19.40;92.20;;;;;;6238431;23;20012;-61
2023/09/23 10:30:57;;;;;;;3.60;1.55;;;19.50;92.20;;;;;;6238922;23;20016;-61
2023/09/23 10:33:43;;;;;;;2.20;1.38;;;19.60;92.00;;;;;;6241091;23;20066;-61
2023/09/23 10:36:29;;;;;;;2.60;1.63;;;19.60;92.00;;;;;;6241687;23;20019;-60
2023/09/23 10:39:15;;;;;;;5.72;1.35;;;19.70;92.10;;;;;;6238354;23;20027;-59
2023/09/23 10:42:01;;;;;;;2.50;1.60;;;19.80;92.10;;;;;;6241012;23;20419;-61
2023/09/23 10:44:47;;;;;;;2.28;1.45;;;19.80;91.90;;;;;;6240323;23;20453;-60
2023/09/23 10:47:36;;;;;;;2.10;1.40;;;19.90;91.90;;;;;;6238019;23;20000;-59
2023/09/23 10:50:22;;;;;;;2.53;1.30;;;20.00;91.90;;;;;;6240074;23;20399;-59
2023/09/23 10:53:08;;;;;;;2.33;1.45;;;20.00;91.90;;;;;;6240204;23;20016;-60
2023/09/23 10:56:02;;;;;;;1.35;1.00;;;20.10;91.70;;;;;;6242759;22;20004;-59
2023/09/23 10:58:51;;;;;;;3.13;1.52;;;20.20;91.40;;;;;;6239421;23;20016;-60
2023/09/23 11:01:37;;;;;;;1.58;1.20;;;20.20;91.40;;;;;;6242177;23;20081;-60
2023/09/23 11:04:24;;;;;;;1.70;1.38;;;20.20;91.40;;;;;;6242571;23;20322;-60
2023/09/23 11:07:10;;;;;;;3.33;1.38;;;20.20;91.20;;;;;;6219641;23;20381;-59
2023/09/23 11:09:56;;;;;;;2.55;1.50;;;20.30;91.10;;;;;;6240785;23;20023;-60
2023/09/23 11:12:44;;;;;;;3.45;1.20;;;20.30;91.30;;;;;;6239132;23;20012;-61
2023/09/23 11:15:30;;;;;;;2.25;1.35;;;20.30;91.00;;;;;;6219000;23;20016;-60
2023/09/23 11:18:17;;;;;;;1.45;1.10;;;20.40;91.00;;;;;;6238927;23;20012;-60
2023/09/23 11:21:03;;;;;;;3.97;1.45;;;20.30;90.60;;;;;;6241650;23;20074;-60
2023/09/23 11:23:57;;;;;;;2.08;1.30;;;20.30;90.70;;;;;;6239913;23;20549;-60
2023/09/23 11:26:45;;;;;;;3.72;1.73;;;20.30;90.70;;;;;;6241086;23;20051;-60
2023/09/23 11:29:31;;;;;;;2.58;1.52;;;20.30;90.60;;;;;;6240701;23;20034;-60
2023/09/23 11:32:23;;;;;;;2.80;1.40;;;20.40;90.30;;;;;;6242142;23;20012;-60
2023/09/23 11:35:09;;;;;;;3.22;1.83;;;20.30;90.20;;;;;;6239524;23;20016;-59
2023/09/23 11:37:55;;;;;;;2.70;1.48;;;20.40;90.40;;;;;;6240498;23;20019;-59
2023/09/23 11:40:41;;;;;;;2.92;1.98;;;20.50;90.20;;;;;;6240267;23;20019;-60
2023/09/23 11:43:27;;;;;;;2.28;1.65;;;20.60;90.10;;;;;;6242435;23;20039;-61
2023/09/23 11:46:14;;;;;;;3.13;1.10;;;20.70;89.80;;;;;;6219361;23;20091;-59
2023/09/23 11:49:00;;;;;;;2.72;1.30;;;20.70;89.60;;;;;;6238847;23;20723;-60
2023/09/23 11:51:46;;;;;;;2.00;1.13;;;20.80;89.40;;;;;;6240238;23;20445;-60
2023/09/23 11:54:33;;;;;;;1.70;1.20;;;20.80;88.90;;;;;;6240863;23;20082;-75
2023/09/23 11:57:19;;;;;;;2.03;1.17;;;20.80;88.80;;;;;;6239167;23;20091;-76
2023/09/23 12:00:09;;;;;;;4.25;1.13;;;20.80;88.40;;;;;;6241223;23;20004;-75
2023/09/23 12:02:55;;;;;;;2.20;1.10;;;20.80;88.40;;;;;;6240593;23;20020;-76
2023/09/23 12:05:41;;;;;;;1.55;1.08;;;20.70;88.10;;;;;;6240727;23;20123;-76
2023/09/23 12:08:27;;;;;;;1.60;1.05;;;20.70;88.20;;;;;;6238883;23;20330;-76
2023/09/23 12:11:13;;;;;;;2.42;1.17;;;20.70;88.20;;;;;;6240128;23;20035;-76
2023/09/23 12:13:59;;;;;;;1.10;1.00;;;20.70;88.20;;;;;;6241055;23;20008;-75
2023/09/23 12:16:46;;;;;;;2.13;1.05;;;20.70;88.50;;;;;;6237649;23;20065;-75
2023/09/23 12:19:32;;;;;;;3.53;1.42;;;20.80;88.30;;;;;;6239131;23;20012;-76
2023/09/23 12:22:20;;;;;;;1.92;1.10;;;20.80;88.00;;;;;;6239188;23;20018;-74
2023/09/23 12:25:07;;;;;;;2.30;1.17;;;20.80;87.50;;;;;;6239684;23;20095;-76
2023/09/23 12:27:53;;;;;;;3.10;1.20;;;20.70;86.90;;;;;;6239338;23;20095;-77
2023/09/23 12:30:39;;;;;;;3.90;1.33;;;20.80;87.10;;;;;;6237911;23;20088;-76
2023/09/23 12:33:25;;;;;;;1.73;1.00;;;20.80;87.20;;;;;;6240026;23;20011;-76
2023/09/23 12:36:11;;;;;;;2.38;1.40;;;20.80;86.80;;;;;;6241854;23;20019;-79
2023/09/23 12:38:57;;;;;;;1.58;1.20;;;20.80;86.80;;;;;;6240224;23;20420;-76
2023/09/23 12:41:43;;;;;;;0.95;0.93;;;20.80;86.10;;;;;;6238636;23;20051;-77
2023/09/23 12:44:29;;;;;;;1.30;0.95;;;20.80;86.70;;;;;;6241194;23;20030;-76
2023/09/23 12:47:15;;;;;;;1.73;0.98;;;20.70;86.20;;;;;;6240782;23;20338;-77
2023/09/23 12:50:02;;;;;;;1.13;0.90;;;20.70;85.90;;;;;;6239010;23;20379;-76
2023/09/23 13:05:32;;;;;;;3.63;1.20;;;20.40;85.40;;;;;;6237814;22;20083;-77
2023/09/23 13:08:19;;;;;;;0.95;0.80;;;20.30;85.60;;;;;;6241764;23;20063;-77
2023/09/23 13:11:05;;;;;;;3.10;0.95;;;20.30;85.20;;;;;;6240058;23;20012;-72
2023/09/23 13:13:51;;;;;;;1.35;1.08;;;20.30;85.20;;;;;;6241200;23;20063;-71
2023/09/23 13:16:37;;;;;;;1.38;1.00;;;20.40;85.20;;;;;;6238610;23;20453;-74
2023/09/23 13:19:23;;;;;;;1.08;0.90;;;20.50;84.60;;;;;;6240434;23;20023;-72
2023/09/23 13:22:09;;;;;;;1.90;1.10;;;20.40;84.60;;;;;;6241859;23;20012;-76
2023/09/23 13:24:55;;;;;;;1.75;1.48;;;20.50;84.60;;;;;;6241592;23;20027;-74
2023/09/23 13:27:42;;;;;;;1.80;1.25;;;20.60;84.60;;;;;;6239490;23;20062;-70
2023/09/23 13:30:28;;;;;;;1.48;1.20;;;20.60;84.10;;;;;;6239705;23;20039;-75
2023/09/23 13:33:14;;;;;;;0.95;0.80;;;20.80;84.70;;;;;;6237511;23;20008;-72
2023/09/23 13:36:00;;;;;;;3.88;1.45;;;20.90;84.70;;;;;;6241415;23;20012;-69
2023/09/23 13:38:46;;;;;;;2.65;1.30;;;21.00;84.80;;;;;;6241477;23;20043;-73
2023/09/23 13:41:32;;;;;;;5.43;2.22;;;21.00;83.90;;;;;;6237969;23;20474;-70
2023/09/23 13:44:18;;;;;;;4.07;2.92;;;21.00;83.60;;;;;;6239520;23;20063;-68
2023/09/23 13:47:04;;;;;;;3.15;1.80;;;21.00;83.30;;;;;;6239637;23;20044;-71
2023/09/23 13:49:50;;;;;;;5.78;2.80;;;20.90;82.60;;;;;;6241698;23;20145;-73
2023/09/23 13:52:36;;;;;;;3.47;2.13;;;20.90;82.70;;;;;;6241002;23;20044;-73
2023/09/23 13:55:22;;;;;;;2.65;1.20;;;20.90;82.40;;;;;;6239908;22;20012;-72
2023/09/23 13:58:08;;;;;;;2.33;1.40;;;20.80;82.20;;;;;;6240532;23;20012;-72
2023/09/23 14:00:54;;;;;;;2.08;1.40;;;20.80;82.50;;;;;;6238822;23;20039;-72
2023/09/23 14:03:40;;;;;;;3.55;1.50;;;20.80;82.30;;;;;;6239786;22;20027;-72
2023/09/23 14:06:26;;;;;;;1.85;1.17;;;20.80;82.20;;;;;;6235598;23;20012;-72
2023/09/23 14:09:12;;;;;;;2.30;1.40;;;20.70;82.10;;;;;;6236368;23;20012;-72
2023/09/23 14:11:58;;;;;;;2.55;1.10;;;20.70;82.00;;;;;;6238034;23;20012;-72
2023/09/23 14:14:44;;;;;;;2.40;1.30;;;20.70;82.20;;;;;;6244809;22;20019;-71
2023/09/23 14:17:30;;;;;;;1.35;1.10;;;20.60;82.40;;;;;;6242693;23;20284;-73
2023/09/23 14:20:16;;;;;;;1.52;1.10;;;20.60;82.30;;;;;;6243094;23;20004;-72
2023/09/23 14:23:02;;;;;;;2.17;1.30;;;20.60;82.00;;;;;;6240748;23;20012;-72
2023/09/23 14:25:48;;;;;;;2.33;1.38;;;20.50;82.20;;;;;;6239343;23;20024;-72
2023/09/23 14:28:34;;;;;;;1.73;1.30;;;20.60;82.40;;;;;;6242865;23;20014;-71
2023/09/23 14:31:20;;;;;;;4.15;1.20;;;20.50;82.50;;;;;;6241396;23;20073;-72
2023/09/23 14:34:06;;;;;;;2.53;1.85;;;20.50;82.80;;;;;;6240422;23;20013;-72
2023/09/23 14:36:53;;;;;;;1.25;1.00;;;20.40;82.60;;;;;;6241768;23;20023;-72
2023/09/23 14:39:39;;;;;;;2.60;1.20;;;20.40;82.60;;;;;;6239750;23;20008;-71
2023/09/23 14:42:25;;;;;;;1.88;1.10;;;20.30;82.50;;;;;;6241793;23;20446;-72
2023/09/23 14:45:11;;;;;;;3.42;1.40;;;20.30;82.70;;;;;;6240694;23;20446;-72